createdAt,value
2022-09-27T00:00:10.415Z,1006
2022-09-27T00:05:39.444Z,1006
2022-09-27T00:10:53.706Z,1006
2022-09-27T00:16:24.125Z,1005.9
2022-09-27T00:22:22.471Z,1006.1
2022-09-27T00:27:34.359Z,1006
2022-09-27T00:33:22.873Z,1005.9
2022-09-27T00:39:01.186Z,1005.9
2022-09-27T00:44:39.230Z,1005.9
2022-09-27T00:50:04.866Z,1005.8
2022-09-27T00:55:49.750Z,1005.7
2022-09-27T01:01:07.490Z,1005.8
2022-09-27T01:06:51.291Z,1006
2022-09-27T01:12:18.085Z,1006
2022-09-27T01:17:51.038Z,1006
2022-09-27T01:23:14.143Z,1006
2022-09-27T01:29:08.895Z,1006
2022-09-27T01:34:46.912Z,1006
2022-09-27T01:40:15.297Z,1006
2022-09-27T01:45:33.080Z,1006
2022-09-27T01:51:18.506Z,1006
2022-09-27T01:56:50.986Z,1006.1
2022-09-27T02:02:22.395Z,1006.1
2022-09-27T02:07:56.178Z,1006
2022-09-27T02:13:17.512Z,1005.9
2022-09-27T02:18:55.252Z,1005.8
2022-09-27T02:24:40.439Z,1005.7
2022-09-27T02:30:18.541Z,1005.8
2022-09-27T02:35:42.235Z,1005.8
2022-09-27T02:41:28.665Z,1006
2022-09-27T02:46:56.981Z,1005.9
2022-09-27T02:52:14.733Z,1005.9
2022-09-27T02:58:02.082Z,1006
2022-09-27T03:03:43.749Z,1006
2022-09-27T03:09:11.514Z,1006.1
2022-09-27T03:14:43.141Z,1006.3
2022-09-27T03:20:20.844Z,1006.3
2022-09-27T03:25:47.137Z,1006.2
2022-09-27T03:48:10.798Z,1006
2022-09-27T03:53:55.459Z,1005.9
2022-09-27T04:05:01.477Z,1006
2022-09-27T04:55:19.041Z,1006.5
2022-09-27T05:23:14.511Z,1006.9
2022-09-27T05:50:59.829Z,1007.3
2022-09-27T05:56:44.023Z,1007.2
2022-09-27T06:18:58.842Z,1007.4
2022-09-27T06:24:25.019Z,1007.4
2022-09-27T06:35:26.670Z,1007.6
2022-09-27T06:40:52.399Z,1007.6
2022-09-27T06:46:49.519Z,1007.6
2022-09-27T06:52:04.993Z,1008
2022-09-27T06:57:38.529Z,1008
2022-09-27T07:03:21.394Z,1007.8
2022-09-27T07:09:02.734Z,1007.9
2022-09-27T07:14:42.510Z,1008
2022-09-27T07:19:59.934Z,1008
2022-09-27T07:25:43.814Z,1008
2022-09-27T07:31:14.121Z,1007.5
2022-09-27T07:36:30.377Z,1007.5
2022-09-27T07:42:33.403Z,1007.4
2022-09-27T07:47:39.303Z,1007.4
2022-09-27T07:53:39.678Z,1007.3
2022-09-27T08:10:04.902Z,1007.5
2022-09-27T08:15:46.331Z,1007.5
2022-09-27T08:26:59.761Z,1007.7
2022-09-27T08:32:37.775Z,1007.5
2022-09-27T08:38:04.159Z,1007.6
2022-09-27T08:43:52.325Z,1007.5
2022-09-27T08:49:18.877Z,1007.4
2022-09-27T08:54:57.850Z,1007.8
2022-09-27T09:00:14.531Z,1007.9
2022-09-27T09:05:53.050Z,1008.1
2022-09-27T09:17:14.202Z,1008.3
2022-09-27T09:28:29.447Z,1008.3
2022-09-27T09:33:44.256Z,1008.4
2022-09-27T09:45:18.485Z,1008.5
2022-09-27T09:50:28.917Z,1008.2
2022-09-27T09:56:15.737Z,1008.1
2022-09-27T10:01:53.772Z,1007.8
2022-09-27T10:07:32.239Z,1007.8
2022-09-27T10:13:13.356Z,1007.7
2022-09-27T10:18:26.151Z,1007.5
2022-09-27T10:35:24.618Z,1007.2
2022-09-27T10:40:59.085Z,1007.4
2022-09-27T10:46:50.841Z,1007.4
2022-09-27T11:25:41.341Z,1007.4
2022-09-27T11:31:33.581Z,1007.4
2022-09-27T11:37:08.331Z,1007.3
2022-09-27T11:42:19.951Z,1007.3
2022-09-27T11:48:09.041Z,1007.4
2022-09-27T11:53:33.269Z,1007.5
2022-09-27T11:59:21.268Z,1007.5
2022-09-27T12:04:59.654Z,1007.5
2022-09-27T12:10:11.623Z,1007.6
2022-09-27T12:15:59.920Z,1007.5
2022-09-27T12:21:40.542Z,1007.4
2022-09-27T12:27:00.883Z,1007.4
2022-09-27T12:32:42.869Z,1007.2
2022-09-27T12:43:57.053Z,1007.1
2022-09-27T12:49:20.195Z,1007.2
2022-09-27T12:55:08.228Z,1007.2
2022-09-27T13:00:25.865Z,1007.2
2022-09-27T13:05:56.518Z,1007.2
2022-09-27T13:11:53.857Z,1007.2
2022-09-27T13:23:03.476Z,1007.7
2022-09-27T13:34:09.881Z,1007.7
2022-09-27T13:39:39.396Z,1007.7
2022-09-27T13:45:16.197Z,1007.6
2022-09-27T13:50:59.830Z,1007.3
2022-09-27T13:56:34.072Z,1007.2
2022-09-27T14:07:42.440Z,1006.8
2022-09-27T14:30:02.471Z,1007.8
2022-09-27T14:40:58.410Z,1008
2022-09-27T14:57:54.796Z,1007.9
2022-09-27T15:03:37.604Z,1007.8
2022-09-27T15:09:12.296Z,1007.6
2022-09-27T15:14:35.244Z,1007.6
2022-09-27T15:20:07.385Z,1007.5
2022-09-27T15:25:44.945Z,1007.2
2022-09-27T15:36:40.630Z,1007.6
2022-09-27T15:47:53.466Z,1007.9
2022-09-27T15:53:46.884Z,1008
2022-09-27T15:59:11.626Z,1007.9
2022-09-27T16:32:33.151Z,1008.7
2022-09-27T16:38:16.004Z,1008.8
2022-09-27T16:43:46.264Z,1008.8
2022-09-27T16:49:18.765Z,1008.8
2022-09-27T16:54:51.281Z,1008.8
2022-09-27T17:00:33.390Z,1008.7
2022-09-27T17:05:52.594Z,1008.9
2022-09-27T17:11:41.573Z,1008.8
2022-09-27T17:17:23.854Z,1008.6
2022-09-27T17:22:54.308Z,1008.6
2022-09-27T17:28:36.180Z,1008.5
2022-09-27T17:34:10.076Z,1008.5
2022-09-27T17:39:24.520Z,1008.6
2022-09-27T17:45:11.567Z,1008.7
2022-09-27T17:50:48.945Z,1008.8
2022-09-27T17:56:06.343Z,1008.7
2022-09-27T18:01:49.062Z,1008.9
2022-09-27T18:07:16.551Z,1008.9
2022-09-27T18:13:10.462Z,1009.1
2022-09-27T18:18:28.000Z,1009
2022-09-27T18:24:17.494Z,1009
2022-09-27T18:29:28.976Z,1009
2022-09-27T18:35:06.243Z,1008.9
2022-09-27T18:40:55.499Z,1009.1
2022-09-27T18:46:37.823Z,1008.9
2022-09-27T18:51:43.453Z,1009
2022-09-27T18:57:26.317Z,1009
2022-09-27T19:03:05.505Z,1009.1
2022-09-27T19:08:42.213Z,1009
2022-09-27T19:19:48.653Z,1009.1
2022-09-27T19:25:17.855Z,1009.1
2022-09-27T19:30:39.172Z,1009.1
2022-09-27T19:36:36.374Z,1009.1
2022-09-27T19:42:06.935Z,1009.3
2022-09-27T19:47:29.554Z,1009.2
2022-09-27T19:53:05.266Z,1009.1
2022-09-27T19:58:39.495Z,1009.2
2022-09-27T20:04:15.479Z,1009.3
2022-09-27T20:09:38.050Z,1009.1
2022-09-27T20:15:36.332Z,1009.3
2022-09-27T20:20:49.750Z,1009
2022-09-27T20:26:27.118Z,1008.9
2022-09-27T20:32:22.835Z,1008.8
2022-09-27T20:37:36.425Z,1008.9
2022-09-27T20:43:12.683Z,1008.8
2022-09-27T20:48:40.708Z,1008.8
2022-09-27T20:54:09.894Z,1008.8
2022-09-27T20:59:55.548Z,1008.8
2022-09-27T21:05:19.712Z,1008.8
2022-09-27T21:11:09.696Z,1008.6
2022-09-27T21:16:42.365Z,1008.6
2022-09-27T21:22:15.019Z,1008.5
2022-09-27T21:27:31.148Z,1008.3
2022-09-27T21:33:13.781Z,1008.2
2022-09-27T21:38:51.233Z,1008.1
2022-09-27T21:44:14.333Z,1008.2
2022-09-27T21:49:45.754Z,1008.4
2022-09-27T21:55:26.941Z,1008.3
2022-09-27T22:00:55.685Z,1008
2022-09-27T22:06:32.332Z,1008
2022-09-27T22:12:14.941Z,1007.7
2022-09-27T22:17:40.433Z,1007.7
2022-09-27T22:23:13.790Z,1007.5
2022-09-27T22:28:58.122Z,1007.6
2022-09-27T22:34:32.380Z,1007.3
2022-09-27T22:40:17.813Z,1007.2
2022-09-27T22:45:31.334Z,1007.2
2022-09-27T22:51:01.153Z,1007.3
2022-09-27T22:56:36.250Z,1007.4
2022-09-27T23:02:10.505Z,1007.4
2022-09-27T23:08:04.666Z,1007.1
2022-09-27T23:13:33.072Z,1007.1
2022-09-27T23:19:06.614Z,1006.7
2022-09-27T23:24:24.284Z,1006.7
2022-09-27T23:30:10.378Z,1006.6
2022-09-27T23:35:41.837Z,1006.4
2022-09-27T23:41:10.751Z,1006.4
2022-09-27T23:47:04.509Z,1006.2
2022-09-27T23:52:23.314Z,1006.1
2022-09-27T23:57:55.908Z,1006.1
